Time;durP1;ratioP1;P1;durP2;ratioP2;P2;SDS_P1;SDS_P2;PMS_P1;PMS_P2;Temp;Humidity;BMP_temperature;BMP_pressure;BME280_temperature;BME280_humidity;BME280_pressure;Samples;Min_cycle;Max_cycle;Signal;HPM_P1;HPM_P2
2021/10/31 00:01:57;;;;;;;7.80;6.00;;;11.90;99.90;;;;;;5074824;28;20174;-82
2021/10/31 00:04:22;;;;;;;10.00;5.93;;;12.00;99.90;;;;;;5094892;28;20265;-82
2021/10/31 00:06:48;;;;;;;8.07;5.43;;;12.00;99.90;;;;;;5094934;28;20416;-83
2021/10/31 00:09:13;;;;;;;9.20;5.87;;;11.90;99.90;;;;;;5076814;28;20224;-82
2021/10/31 00:11:39;;;;;;;7.77;5.13;;;11.90;99.90;;;;;;5094624;28;20207;-82
2021/10/31 00:14:05;;;;;;;10.00;5.30;;;11.90;99.90;;;;;;5083883;28;20177;-82
2021/10/31 00:16:31;;;;;;;8.90;5.03;;;11.90;99.90;;;;;;5074625;28;20416;-82
2021/10/31 00:18:57;;;;;;;7.87;5.13;;;11.90;99.90;;;;;;5074598;28;20177;-83
2021/10/31 00:21:25;;;;;;;9.23;5.57;;;11.90;99.90;;;;;;5074505;28;20173;-83
2021/10/31 00:23:51;;;;;;;8.63;5.50;;;11.90;99.90;;;;;;5074391;28;20541;-83
2021/10/31 00:26:16;;;;;;;9.97;5.40;;;11.90;99.90;;;;;;5074131;28;20515;-82
2021/10/31 00:28:42;;;;;;;9.00;6.17;;;11.90;99.90;;;;;;5074504;28;20220;-83
2021/10/31 00:31:09;;;;;;;10.90;6.90;;;11.90;99.90;;;;;;5074385;28;20220;-83
2021/10/31 00:33:34;;;;;;;8.67;6.00;;;11.90;99.90;;;;;;5056306;28;20169;-82
2021/10/31 00:36:00;;;;;;;9.97;6.30;;;11.90;99.90;;;;;;5085672;28;20419;-82
2021/10/31 00:40:44;;;;;;;8.53;6.30;;;11.90;99.90;;;;;;5085659;28;20676;-82
2021/10/31 00:43:11;;;;;;;7.90;6.00;;;11.90;99.90;;;;;;5070246;28;20415;-83
2021/10/31 00:45:36;;;;;;;9.03;6.10;;;11.80;99.90;;;;;;5067480;28;20474;-82
2021/10/31 00:48:02;;;;;;;9.40;6.00;;;11.80;99.90;;;;;;5050226;28;20918;-82
2021/10/31 00:50:27;;;;;;;12.13;7.00;;;11.80;99.90;;;;;;5050225;28;20641;-82
2021/10/31 00:52:53;;;;;;;11.90;7.87;;;11.70;99.90;;;;;;5050078;28;20602;-82
2021/10/31 00:55:19;;;;;;;10.23;6.33;;;11.70;99.90;;;;;;5049537;28;20546;-82
2021/10/31 00:57:46;;;;;;;10.73;6.67;;;11.70;99.90;;;;;;5049997;28;20250;-82
2021/10/31 01:00:12;;;;;;;10.30;7.53;;;11.70;99.90;;;;;;5048637;28;20272;-82
2021/10/31 01:02:39;;;;;;;11.30;6.40;;;11.80;99.90;;;;;;5049861;28;20412;-82
2021/10/31 01:05:08;;;;;;;10.97;6.57;;;11.80;99.90;;;;;;5049839;28;20401;-82
2021/10/31 01:08:03;;;;;;;13.97;8.00;;;11.80;99.90;;;;;;5048562;28;20419;-83
2021/10/31 01:11:02;;;;;;;9.27;6.73;;;11.80;99.90;;;;;;5048202;28;20967;-82
2021/10/31 01:14:07;;;;;;;11.13;8.00;;;11.80;99.90;;;;;;5049766;28;20909;-83
2021/10/31 01:16:55;;;;;;;9.80;6.10;;;11.80;99.90;;;;;;5049732;28;20529;-82
2021/10/31 01:20:05;;;;;;;10.00;6.37;;;11.70;99.90;;;;;;5048285;28;20882;-82
2021/10/31 01:23:00;;;;;;;10.73;5.77;;;11.70;99.90;;;;;;5049654;28;20393;-83
2021/10/31 01:26:05;;;;;;;12.57;7.33;;;11.70;99.90;;;;;;5049152;28;20408;-82
2021/10/31 01:28:59;;;;;;;8.70;6.30;;;11.80;99.90;;;;;;5048080;28;20421;-82
2021/10/31 01:31:55;;;;;;;10.60;7.37;;;11.80;99.90;;;;;;5049346;28;20420;-82
2021/10/31 01:34:49;;;;;;;9.90;7.27;;;11.80;99.90;;;;;;5049251;28;20854;-82
2021/10/31 01:37:48;;;;;;;9.90;7.10;;;11.80;99.90;;;;;;5049319;28;20500;-84
2021/10/31 01:40:29;;;;;;;9.27;6.17;;;11.70;99.90;;;;;;5049612;28;20470;-82
2021/10/31 01:43:11;;;;;;;10.40;6.90;;;11.80;99.90;;;;;;5053030;28;20438;-82
2021/10/31 01:45:52;;;;;;;9.47;6.50;;;11.80;99.90;;;;;;5049186;28;20410;-82
2021/10/31 01:48:46;;;;;;;11.17;8.30;;;11.80;99.90;;;;;;5049073;28;20436;-82
2021/10/31 01:51:18;;;;;;;10.40;6.67;;;11.70;99.90;;;;;;5040642;28;20406;-82
2021/10/31 01:53:52;;;;;;;11.73;7.27;;;11.70;99.90;;;;;;5034450;28;20837;-82
2021/10/31 01:56:20;;;;;;;9.50;6.70;;;11.70;99.90;;;;;;5034068;28;20426;-83
2021/10/31 01:59:03;;;;;;;11.40;7.70;;;11.80;99.90;;;;;;5034250;28;20489;-82
2021/10/31 02:01:31;;;;;;;10.57;7.07;;;11.80;99.90;;;;;;5035611;28;20420;-82
2021/10/31 02:04:02;;;;;;;10.53;8.07;;;11.80;99.90;;;;;;5035562;28;20848;-82
2021/10/31 02:06:30;;;;;;;10.20;7.90;;;11.80;99.90;;;;;;5035607;28;20933;-83
2021/10/31 02:08:57;;;;;;;10.27;7.13;;;11.70;99.90;;;;;;5035467;28;20923;-82
2021/10/31 02:11:23;;;;;;;10.60;8.27;;;11.70;99.90;;;;;;5017398;28;20502;-82
2021/10/31 02:13:52;;;;;;;10.40;8.13;;;11.70;99.90;;;;;;5035381;28;20459;-83
2021/10/31 02:16:18;;;;;;;11.73;8.23;;;11.80;99.90;;;;;;5035317;28;20406;-82
2021/10/31 02:18:48;;;;;;;10.07;7.40;;;11.80;99.90;;;;;;5035230;28;20489;-82
2021/10/31 02:21:20;;;;;;;11.53;8.17;;;11.70;99.90;;;;;;5035224;28;20424;-82
2021/10/31 02:23:47;;;;;;;11.80;9.27;;;11.70;99.90;;;;;;5035235;28;20767;-82
2021/10/31 02:26:14;;;;;;;11.30;9.27;;;11.60;99.90;;;;;;5034780;28;20440;-82
2021/10/31 02:28:51;;;;;;;12.50;8.80;;;11.60;99.90;;;;;;5042157;28;20427;-81
2021/10/31 02:31:18;;;;;;;13.10;8.93;;;11.50;99.90;;;;;;5054996;28;20412;-81
2021/10/31 02:33:43;;;;;;;12.60;9.63;;;11.50;99.90;;;;;;5054930;28;20405;-82
2021/10/31 02:36:09;;;;;;;14.13;10.00;;;11.40;99.90;;;;;;5054861;28;20418;-81
2021/10/31 02:38:34;;;;;;;12.47;8.73;;;11.40;99.90;;;;;;5054569;28;20186;-82
2021/10/31 02:41:00;;;;;;;15.80;10.50;;;11.40;99.90;;;;;;5054360;28;20237;-82
2021/10/31 02:43:25;;;;;;;17.57;11.00;;;11.40;99.90;;;;;;5054709;28;20162;-82
2021/10/31 02:45:51;;;;;;;15.30;10.07;;;11.50;99.90;;;;;;5054738;28;20695;-82
2021/10/31 02:48:17;;;;;;;15.07;10.40;;;11.50;99.90;;;;;;5054683;28;20562;-82
2021/10/31 02:50:45;;;;;;;14.07;9.73;;;11.50;99.90;;;;;;5053307;28;20264;-82
2021/10/31 02:53:33;;;;;;;15.70;10.40;;;11.50;99.90;;;;;;5054574;28;20441;-83
2021/10/31 02:56:25;;;;;;;16.43;10.43;;;11.60;99.90;;;;;;5054178;28;20444;-82
2021/10/31 02:59:14;;;;;;;16.23;11.93;;;11.50;99.90;;;;;;5054346;28;20471;-82
2021/10/31 03:01:41;;;;;;;16.80;12.87;;;11.50;99.90;;;;;;5054035;28;20951;-82
2021/10/31 03:04:07;;;;;;;13.03;11.20;;;11.50;99.90;;;;;;5053816;28;20756;-83
2021/10/31 03:06:33;;;;;;;12.60;10.20;;;11.40;99.90;;;;;;5054355;28;20419;-83
2021/10/31 03:08:59;;;;;;;14.83;11.20;;;11.30;99.90;;;;;;5053826;28;20408;-83
2021/10/31 03:11:26;;;;;;;18.00;12.13;;;11.20;99.90;;;;;;5054196;28;20552;-83
2021/10/31 03:13:52;;;;;;;16.90;11.40;;;11.30;99.90;;;;;;5054146;28;20175;-83
2021/10/31 03:16:18;;;;;;;17.03;11.33;;;11.20;99.90;;;;;;5054127;28;20760;-83
2021/10/31 03:18:44;;;;;;;15.07;10.43;;;11.20;99.90;;;;;;5053935;28;20285;-83
2021/10/31 03:21:10;;;;;;;16.33;11.70;;;11.10;99.90;;;;;;5054000;28;20266;-83
2021/10/31 03:23:37;;;;;;;18.07;11.80;;;11.00;99.90;;;;;;5053974;28;20436;-82
2021/10/31 03:26:02;;;;;;;15.83;11.63;;;11.00;99.90;;;;;;5053493;28;20629;-83
2021/10/31 03:28:28;;;;;;;17.57;12.03;;;11.10;99.90;;;;;;5053868;28;20541;-83
2021/10/31 03:30:54;;;;;;;16.10;10.70;;;11.00;99.90;;;;;;5053843;28;20216;-83
2021/10/31 03:33:19;;;;;;;21.53;13.03;;;11.10;99.90;;;;;;5053796;28;20169;-83
2021/10/31 03:35:45;;;;;;;16.93;12.50;;;11.20;99.90;;;;;;5053798;28;20637;-82
2021/10/31 03:38:11;;;;;;;18.47;11.90;;;11.20;99.90;;;;;;5053671;28;20173;-82
2021/10/31 03:40:36;;;;;;;19.40;13.43;;;11.20;99.90;;;;;;5053054;28;20225;-82
2021/10/31 03:43:02;;;;;;;15.83;11.90;;;11.20;99.90;;;;;;5053690;28;20241;-82
2021/10/31 03:45:28;;;;;;;15.97;11.07;;;11.20;99.90;;;;;;5052317;28;20697;-82
2021/10/31 03:47:53;;;;;;;18.53;12.37;;;11.20;99.90;;;;;;5053548;28;20174;-82
2021/10/31 03:50:24;;;;;;;18.30;12.80;;;11.20;99.90;;;;;;5053542;28;20260;-82
2021/10/31 03:52:51;;;;;;;16.33;12.63;;;11.20;99.90;;;;;;5053472;28;20174;-82
2021/10/31 03:55:18;;;;;;;18.30;13.73;;;11.10;99.90;;;;;;5053137;28;20420;-82
2021/10/31 03:57:43;;;;;;;17.90;12.67;;;11.00;99.90;;;;;;5053390;28;20421;-82
2021/10/31 04:00:11;;;;;;;20.47;13.03;;;10.90;99.90;;;;;;5053226;28;20522;-82
2021/10/31 04:02:37;;;;;;;15.80;12.73;;;11.00;99.90;;;;;;5053275;28;20408;-82
2021/10/31 04:05:04;;;;;;;18.03;13.23;;;11.00;99.90;;;;;;5053279;28;20780;-83
2021/10/31 04:07:30;;;;;;;18.80;13.13;;;11.00;99.90;;;;;;5053209;28;20812;-82
2021/10/31 04:09:56;;;;;;;19.63;13.37;;;11.00;99.90;;;;;;5052683;28;20414;-82
2021/10/31 04:12:22;;;;;;;17.00;11.40;;;11.00;99.90;;;;;;5051909;28;20661;-82
2021/10/31 04:14:47;;;;;;;17.80;12.23;;;11.00;99.90;;;;;;5052894;28;20414;-82
2021/10/31 04:17:13;;;;;;;15.20;12.80;;;11.10;99.90;;;;;;5053095;28;20170;-82
2021/10/31 04:19:39;;;;;;;18.93;13.40;;;11.10;99.90;;;;;;5052936;28;20211;-82
2021/10/31 04:22:04;;;;;;;17.73;12.20;;;11.00;99.90;;;;;;5052941;28;20198;-83
2021/10/31 04:24:31;;;;;;;17.20;11.53;;;10.90;99.90;;;;;;5052713;28;20165;-82
2021/10/31 04:27:02;;;;;;;19.53;12.50;;;10.90;99.90;;;;;;5052901;28;20703;-81
2021/10/31 04:29:28;;;;;;;15.90;12.47;;;10.90;99.90;;;;;;5052929;28;20412;-81
2021/10/31 04:31:54;;;;;;;15.63;10.57;;;10.80;99.90;;;;;;5051537;28;20457;-81
2021/10/31 04:34:20;;;;;;;16.30;12.43;;;10.60;99.90;;;;;;5052878;28;20476;-82
2021/10/31 04:36:47;;;;;;;17.77;12.40;;;10.30;99.90;;;;;;5052872;28;20409;-81
2021/10/31 04:39:13;;;;;;;15.27;11.10;;;10.10;99.90;;;;;;5050887;28;20486;-81
2021/10/31 04:41:42;;;;;;;14.20;11.77;;;10.00;99.90;;;;;;5052808;28;20899;-81
2021/10/31 04:44:08;;;;;;;15.20;11.17;;;9.90;99.90;;;;;;5052813;28;20162;-82
2021/10/31 04:46:33;;;;;;;16.17;11.30;;;9.80;99.90;;;;;;5052694;28;20461;-82
2021/10/31 04:48:59;;;;;;;17.03;12.60;;;9.80;99.90;;;;;;5051450;28;20180;-81
2021/10/31 04:51:24;;;;;;;18.10;12.50;;;9.90;99.90;;;;;;5052685;28;20187;-81
2021/10/31 04:53:50;;;;;;;17.70;12.27;;;9.90;99.90;;;;;;5052299;28;20177;-81
2021/10/31 04:56:16;;;;;;;14.23;10.90;;;9.70;99.90;;;;;;5052648;28;20314;-81
2021/10/31 04:58:42;;;;;;;13.60;10.20;;;9.60;99.90;;;;;;5052580;28;20173;-81
2021/10/31 05:01:08;;;;;;;12.97;9.93;;;9.50;99.90;;;;;;5051424;28;20958;-87
2021/10/31 05:03:33;;;;;;;16.37;10.73;;;9.40;99.90;;;;;;5051480;28;20174;-85
2021/10/31 05:05:59;;;;;;;13.83;9.53;;;9.30;99.90;;;;;;5052825;28;20177;-85
2021/10/31 05:08:26;;;;;;;14.83;10.20;;;9.30;99.90;;;;;;5052833;28;20249;-83
2021/10/31 05:10:51;;;;;;;13.40;10.40;;;9.20;99.90;;;;;;5052384;28;20222;-85
2021/10/31 05:13:17;;;;;;;13.93;9.97;;;9.10;99.90;;;;;;5052547;28;20903;-83
2021/10/31 05:15:43;;;;;;;17.10;10.50;;;9.00;99.90;;;;;;5052499;28;20196;-84
2021/10/31 05:18:08;;;;;;;14.90;10.53;;;9.00;99.90;;;;;;5052401;28;20173;-83
2021/10/31 05:20:34;;;;;;;14.10;10.50;;;9.00;99.90;;;;;;5052450;28;20215;-83
2021/10/31 05:22:59;;;;;;;14.97;10.60;;;9.00;99.90;;;;;;5052415;28;20177;-87
2021/10/31 05:25:25;;;;;;;18.50;10.60;;;8.90;99.90;;;;;;5052449;28;20173;-85
2021/10/31 05:27:51;;;;;;;13.17;9.27;;;8.90;99.90;;;;;;5056200;28;20171;-83
2021/10/31 05:30:17;;;;;;;13.43;10.23;;;8.90;99.90;;;;;;5056107;28;20176;-84
2021/10/31 05:32:43;;;;;;;17.93;10.80;;;8.90;99.90;;;;;;5054814;28;20427;-87
2021/10/31 05:35:11;;;;;;;11.70;8.97;;;9.10;99.90;;;;;;5056255;28;20259;-85
2021/10/31 05:37:41;;;;;;;11.80;7.13;;;9.00;99.90;;;;;;5054847;28;20423;-87
2021/10/31 05:40:10;;;;;;;12.67;8.50;;;8.90;99.90;;;;;;5055393;28;20986;-85
2021/10/31 05:42:36;;;;;;;12.10;8.67;;;8.80;99.90;;;;;;5054739;28;20777;-82
2021/10/31 05:45:02;;;;;;;10.50;8.20;;;8.90;99.90;;;;;;5055986;28;20509;-86
2021/10/31 05:47:28;;;;;;;10.83;8.00;;;8.80;99.90;;;;;;5055966;28;20423;-85
2021/10/31 05:49:54;;;;;;;12.30;6.50;;;8.80;99.90;;;;;;5055810;28;20433;-86
2021/10/31 05:52:20;;;;;;;11.67;7.23;;;8.80;99.90;;;;;;5055890;28;20410;-83
2021/10/31 05:54:46;;;;;;;10.67;7.70;;;8.80;99.90;;;;;;5055395;28;20258;-84
2021/10/31 05:57:11;;;;;;;12.20;9.47;;;8.80;99.90;;;;;;5055674;28;20172;-83
2021/10/31 05:59:37;;;;;;;11.27;8.17;;;8.80;99.90;;;;;;5055600;28;20211;-83
2021/10/31 06:02:06;;;;;;;13.73;10.07;;;8.70;99.90;;;;;;5055530;28;20579;-85
2021/10/31 06:04:32;;;;;;;13.37;9.40;;;8.80;99.90;;;;;;5055524;28;20181;-83
2021/10/31 06:06:58;;;;;;;13.50;9.67;;;8.80;99.90;;;;;;5055607;28;20519;-85
2021/10/31 06:09:23;;;;;;;13.40;9.73;;;8.80;99.90;;;;;;5055323;28;20174;-83
2021/10/31 06:11:49;;;;;;;12.80;9.57;;;8.80;99.90;;;;;;5055531;28;20184;-85
2021/10/31 06:14:15;;;;;;;14.70;9.80;;;8.70;99.90;;;;;;5055538;28;20183;-85
2021/10/31 06:16:41;;;;;;;12.70;9.27;;;8.60;99.90;;;;;;5055393;28;20173;-85
2021/10/31 06:19:06;;;;;;;12.77;8.10;;;8.50;99.90;;;;;;5055208;28;20211;-82
2021/10/31 06:21:32;;;;;;;9.03;6.67;;;8.50;99.90;;;;;;5055371;28;20250;-85
2021/10/31 06:23:58;;;;;;;13.70;8.90;;;8.40;99.90;;;;;;5053543;28;20308;-86
2021/10/31 06:26:23;;;;;;;12.63;9.63;;;8.60;99.90;;;;;;5055332;28;20678;-86
2021/10/31 06:28:49;;;;;;;11.23;8.23;;;8.70;99.90;;;;;;5055332;28;20204;-82
2021/10/31 06:31:15;;;;;;;12.40;8.07;;;8.60;99.90;;;;;;5054981;28;20182;-83
2021/10/31 06:33:41;;;;;;;12.83;7.80;;;8.40;99.90;;;;;;5054982;28;20213;-84
2021/10/31 06:36:06;;;;;;;10.97;6.50;;;8.40;99.90;;;;;;5054781;28;20180;-83
2021/10/31 06:38:32;;;;;;;10.33;6.70;;;8.40;99.90;;;;;;5053893;28;20416;-82
2021/10/31 06:40:57;;;;;;;9.57;5.97;;;8.50;99.90;;;;;;5054730;28;20648;-81
2021/10/31 06:43:23;;;;;;;8.97;5.83;;;8.50;99.90;;;;;;5054628;28;20175;-83
2021/10/31 06:45:49;;;;;;;12.80;7.27;;;8.50;99.90;;;;;;5054474;28;20183;-83
2021/10/31 06:48:15;;;;;;;9.73;7.43;;;8.50;99.90;;;;;;5053407;28;20181;-82
2021/10/31 06:50:40;;;;;;;12.53;8.50;;;8.50;99.90;;;;;;5054478;28;20198;-81
2021/10/31 06:53:06;;;;;;;11.73;8.00;;;8.50;99.90;;;;;;5036538;28;20423;-82
2021/10/31 06:55:32;;;;;;;12.00;8.50;;;8.50;99.90;;;;;;5052754;28;20644;-82
2021/10/31 06:57:58;;;;;;;10.70;7.60;;;8.60;99.90;;;;;;5054360;28;20214;-83
2021/10/31 07:00:26;;;;;;;14.23;9.57;;;8.60;99.90;;;;;;5052954;28;20212;-83
2021/10/31 07:02:52;;;;;;;14.57;9.10;;;8.70;99.90;;;;;;5054251;28;20939;-83
2021/10/31 07:05:17;;;;;;;14.80;8.80;;;8.80;99.90;;;;;;5054248;28;20429;-83
2021/10/31 07:07:43;;;;;;;10.03;8.40;;;9.10;99.90;;;;;;5052892;28;20680;-83
2021/10/31 07:10:09;;;;;;;11.43;8.63;;;9.00;99.90;;;;;;5053820;28;20172;-83
2021/10/31 07:12:35;;;;;;;13.37;7.57;;;9.00;99.90;;;;;;5054031;28;20196;-83
2021/10/31 07:15:00;;;;;;;13.73;9.33;;;9.10;99.90;;;;;;5053927;28;20435;-82
2021/10/31 07:17:26;;;;;;;15.53;9.07;;;9.20;99.90;;;;;;5053993;28;20179;-82
2021/10/31 07:19:51;;;;;;;12.40;8.30;;;9.20;99.90;;;;;;5053868;28;20349;-82
2021/10/31 07:22:19;;;;;;;12.77;8.17;;;9.40;99.90;;;;;;5053862;28;20270;-83
2021/10/31 07:24:49;;;;;;;13.47;8.73;;;9.60;99.90;;;;;;5053530;28;20175;-82
2021/10/31 07:27:15;;;;;;;16.53;9.70;;;9.70;99.90;;;;;;5052514;28;20432;-82
2021/10/31 07:29:40;;;;;;;11.33;8.80;;;10.00;99.90;;;;;;5053719;28;20446;-82
2021/10/31 07:32:06;;;;;;;12.63;9.53;;;10.00;99.90;;;;;;5053713;28;20588;-81
2021/10/31 07:34:32;;;;;;;12.47;8.40;;;10.10;99.90;;;;;;5053637;28;20166;-81
2021/10/31 07:36:57;;;;;;;15.13;9.70;;;10.20;99.90;;;;;;5053605;28;20492;-82
2021/10/31 07:39:23;;;;;;;14.27;10.40;;;10.30;99.90;;;;;;5052902;28;20245;-82
2021/10/31 07:41:49;;;;;;;12.10;8.83;;;10.30;99.90;;;;;;5053486;28;20176;-82
2021/10/31 07:44:15;;;;;;;14.50;9.30;;;10.30;99.90;;;;;;5053518;28;20169;-82
2021/10/31 07:46:41;;;;;;;13.37;9.07;;;10.30;99.90;;;;;;5053461;28;20814;-81
2021/10/31 07:49:06;;;;;;;11.27;8.17;;;10.40;99.90;;;;;;5052883;28;20174;-82
2021/10/31 07:51:32;;;;;;;12.50;8.50;;;10.70;99.90;;;;;;5053346;28;20178;-82
2021/10/31 07:53:58;;;;;;;13.00;8.63;;;10.80;99.90;;;;;;5053010;28;20224;-82
2021/10/31 07:56:26;;;;;;;11.03;8.00;;;11.00;99.90;;;;;;5053352;28;20209;-82
2021/10/31 07:58:55;;;;;;;10.90;8.23;;;11.30;99.90;;;;;;5053159;28;20632;-82
2021/10/31 08:01:23;;;;;;;13.20;9.17;;;11.50;99.90;;;;;;5053279;28;20435;-82
2021/10/31 08:03:53;;;;;;;10.07;7.73;;;11.70;99.90;;;;;;5053174;28;20408;-83
2021/10/31 08:06:19;;;;;;;10.03;7.80;;;11.80;99.90;;;;;;5053112;28;20430;-82
2021/10/31 08:08:45;;;;;;;10.60;8.23;;;11.70;99.90;;;;;;5052753;28;20421;-82
2021/10/31 08:11:11;;;;;;;10.37;7.23;;;12.00;99.90;;;;;;5053145;28;20417;-83
2021/10/31 08:13:38;;;;;;;11.47;6.73;;;12.10;99.90;;;;;;5053051;28;20173;-83
2021/10/31 08:16:04;;;;;;;10.10;7.40;;;12.50;99.90;;;;;;5051715;28;20179;-82
2021/10/31 08:18:30;;;;;;;10.23;7.07;;;12.40;99.90;;;;;;5053072;28;20748;-82
2021/10/31 08:20:55;;;;;;;11.50;7.43;;;12.40;99.90;;;;;;5052950;28;20658;-81
2021/10/31 08:23:21;;;;;;;10.80;7.97;;;12.60;99.90;;;;;;5052509;28;20493;-82
2021/10/31 08:25:48;;;;;;;9.70;7.23;;;12.70;99.90;;;;;;5053025;28;20201;-82
2021/10/31 08:28:16;;;;;;;11.17;7.80;;;12.60;99.90;;;;;;5052923;28;20411;-83
2021/10/31 08:30:48;;;;;;;9.90;7.60;;;12.60;99.90;;;;;;5052799;28;20426;-83
2021/10/31 08:33:19;;;;;;;11.33;8.30;;;12.50;99.90;;;;;;5052856;28;20415;-83
2021/10/31 08:35:46;;;;;;;11.00;7.77;;;12.50;99.90;;;;;;5052841;28;20416;-83
2021/10/31 08:38:12;;;;;;;10.20;8.37;;;12.80;99.90;;;;;;5052478;28;20408;-83
2021/10/31 08:40:39;;;;;;;8.73;6.80;;;12.90;99.90;;;;;;5052544;28;20485;-83
2021/10/31 08:43:05;;;;;;;8.97;7.80;;;13.10;99.90;;;;;;5050137;28;20522;-87
2021/10/31 08:45:31;;;;;;;8.63;6.90;;;15.30;99.90;;;;;;5056058;28;20436;-84
2021/10/31 08:47:57;;;;;;;7.73;5.97;;;16.40;99.90;;;;;;5056821;28;20432;-84
2021/10/31 08:50:26;;;;;;;8.60;7.17;;;15.60;99.90;;;;;;5039501;28;20434;-84
2021/10/31 08:52:51;;;;;;;9.00;6.80;;;14.80;99.90;;;;;;5050260;28;20425;-84
2021/10/31 08:55:17;;;;;;;8.40;6.13;;;14.70;99.90;;;;;;5051227;28;20846;-84
2021/10/31 08:57:45;;;;;;;10.53;6.93;;;14.70;99.90;;;;;;5051538;28;20238;-85
2021/10/31 09:00:12;;;;;;;8.73;7.00;;;16.20;99.90;;;;;;5035670;28;20251;-84
2021/10/31 09:02:37;;;;;;;10.77;6.80;;;16.20;99.90;;;;;;5034332;28;20959;-86
2021/10/31 09:05:07;;;;;;;8.00;7.03;;;16.30;99.90;;;;;;5034325;28;20431;-83
2021/10/31 09:07:33;;;;;;;9.13;7.30;;;16.80;99.90;;;;;;5035624;28;20574;-84
2021/10/31 09:09:59;;;;;;;7.33;6.20;;;16.50;99.90;;;;;;5050493;28;20432;-85
2021/10/31 09:12:25;;;;;;;10.50;7.10;;;16.70;99.90;;;;;;5035228;28;20486;-85
2021/10/31 09:14:51;;;;;;;9.90;6.03;;;17.10;99.90;;;;;;5032142;28;20181;-87
2021/10/31 09:17:16;;;;;;;8.23;7.17;;;16.40;99.90;;;;;;5048407;28;20178;-86
2021/10/31 09:19:42;;;;;;;9.13;6.67;;;16.40;99.90;;;;;;5054986;28;20291;-84
2021/10/31 09:22:09;;;;;;;9.53;7.47;;;16.30;99.90;;;;;;5053890;28;20179;-83
2021/10/31 09:24:34;;;;;;;7.00;5.90;;;17.00;99.90;;;;;;5054179;28;20207;-87
2021/10/31 09:27:00;;;;;;;8.10;7.30;;;17.30;99.90;;;;;;5054903;28;20414;-86
2021/10/31 09:29:28;;;;;;;9.97;7.20;;;17.70;99.90;;;;;;5054987;28;20173;-87
2021/10/31 09:31:54;;;;;;;9.57;6.90;;;17.70;99.90;;;;;;5053510;28;20177;-87
2021/10/31 09:34:20;;;;;;;11.30;8.67;;;16.90;99.90;;;;;;5054676;28;20773;-85
2021/10/31 09:36:46;;;;;;;9.37;6.57;;;17.10;99.90;;;;;;5054598;28;20169;-84
2021/10/31 09:39:12;;;;;;;7.90;7.10;;;16.70;99.90;;;;;;5053927;28;20480;-83
2021/10/31 09:41:39;;;;;;;9.67;8.33;;;16.30;99.90;;;;;;5053265;28;20476;-85
2021/10/31 09:44:19;;;;;;;8.17;6.83;;;15.60;99.90;;;;;;5054383;28;20426;-85
2021/10/31 09:46:46;;;;;;;11.03;7.70;;;16.30;99.90;;;;;;5050708;28;20462;-84
2021/10/31 09:49:13;;;;;;;9.00;8.07;;;16.90;99.90;;;;;;5052938;28;20423;-84
2021/10/31 09:51:41;;;;;;;8.00;6.70;;;16.70;99.90;;;;;;5040008;28;20438;-85
2021/10/31 09:54:08;;;;;;;8.77;7.20;;;16.10;99.90;;;;;;5034084;28;20998;-83
2021/10/31 09:56:41;;;;;;;9.00;6.93;;;16.10;99.90;;;;;;5034371;28;20422;-89
2021/10/31 09:59:13;;;;;;;10.00;7.43;;;15.70;99.90;;;;;;5034293;28;20460;-84
2021/10/31 10:04:34;;;;;;;10.17;8.00;;;16.70;99.90;;;;;;5053989;28;20415;-85
2021/10/31 10:07:02;;;;;;;10.10;7.87;;;16.10;99.90;;;;;;5051723;28;20522;-83
2021/10/31 10:09:30;;;;;;;9.00;7.57;;;15.80;99.90;;;;;;5053358;28;20560;-84
2021/10/31 10:11:57;;;;;;;8.47;7.40;;;16.90;99.90;;;;;;5052177;28;20935;-84
2021/10/31 10:14:29;;;;;;;11.03;7.70;;;16.80;99.90;;;;;;5053883;28;20408;-84
2021/10/31 10:16:59;;;;;;;8.40;7.20;;;17.70;99.90;;;;;;5052430;28;20432;-84
2021/10/31 10:19:33;;;;;;;9.33;6.70;;;18.00;99.90;;;;;;5039914;28;20554;-83
2021/10/31 10:22:08;;;;;;;8.30;6.90;;;16.70;99.90;;;;;;5033921;28;20412;-84
2021/10/31 10:24:55;;;;;;;9.00;7.37;;;17.00;99.90;;;;;;5032237;28;20576;-84
2021/10/31 10:27:24;;;;;;;9.27;8.37;;;17.40;99.90;;;;;;5033872;28;20758;-85
2021/10/31 10:29:51;;;;;;;8.77;7.87;;;17.40;99.90;;;;;;5033701;28;20494;-84
2021/10/31 10:32:20;;;;;;;8.73;7.70;;;17.80;99.90;;;;;;5033666;28;20413;-83
2021/10/31 10:34:53;;;;;;;8.50;7.17;;;18.30;99.90;;;;;;5033531;28;20407;-84
2021/10/31 10:37:36;;;;;;;8.30;7.27;;;17.70;99.90;;;;;;5033491;28;20770;-82
2021/10/31 10:40:09;;;;;;;8.50;7.30;;;16.40;99.90;;;;;;5032957;28;20832;-84
2021/10/31 10:42:43;;;;;;;9.57;7.17;;;17.10;99.90;;;;;;5034853;28;20431;-84
2021/10/31 10:45:12;;;;;;;7.77;6.60;;;18.60;99.90;;;;;;5054535;28;20507;-83
2021/10/31 10:47:56;;;;;;;8.23;7.43;;;17.50;99.90;;;;;;5054155;28;20413;-84
2021/10/31 10:50:27;;;;;;;9.40;8.10;;;17.30;99.90;;;;;;5054366;28;20940;-84
2021/10/31 10:52:54;;;;;;;8.10;7.30;;;16.50;99.90;;;;;;5036287;28;20416;-85
2021/10/31 10:55:28;;;;;;;8.90;8.00;;;17.60;99.90;;;;;;5054051;28;20424;-84
2021/10/31 10:57:55;;;;;;;8.03;6.70;;;17.20;99.90;;;;;;5054166;28;20411;-84
2021/10/31 11:00:23;;;;;;;7.17;5.80;;;18.30;99.90;;;;;;5054156;28;20488;-84
2021/10/31 11:03:03;;;;;;;8.13;6.83;;;19.80;99.90;;;;;;5054107;28;20829;-84
2021/10/31 11:05:30;;;;;;;7.70;6.47;;;19.30;99.90;;;;;;5054055;28;20423;-84
2021/10/31 11:07:57;;;;;;;7.20;6.50;;;19.70;99.90;;;;;;5053604;28;20517;-84
2021/10/31 11:10:29;;;;;;;7.57;6.80;;;19.90;99.90;;;;;;5052580;28;20420;-86
2021/10/31 11:13:00;;;;;;;8.57;7.13;;;19.10;99.90;;;;;;5053839;28;20427;-85
2021/10/31 11:15:31;;;;;;;7.37;6.60;;;19.00;99.90;;;;;;5053850;28;20456;-90
2021/10/31 11:18:02;;;;;;;10.23;6.53;;;20.30;99.90;;;;;;5053505;28;20411;-83
2021/10/31 11:20:30;;;;;;;6.20;5.67;;;19.50;99.90;;;;;;5051548;28;20486;-85
2021/10/31 11:23:00;;;;;;;7.83;6.03;;;18.40;99.90;;;;;;5052387;28;20822;-85
2021/10/31 11:25:30;;;;;;;9.67;6.20;;;18.00;99.90;;;;;;5048990;28;20779;-83
2021/10/31 11:27:57;;;;;;;8.33;6.30;;;18.50;99.90;;;;;;5052934;28;20828;-84
2021/10/31 11:30:24;;;;;;;6.13;5.07;;;18.30;99.90;;;;;;5049702;28;20425;-84
2021/10/31 11:32:55;;;;;;;7.00;5.90;;;18.10;99.90;;;;;;5051529;28;20452;-85
2021/10/31 11:35:22;;;;;;;7.93;7.07;;;18.00;99.90;;;;;;5052046;28;20472;-84
2021/10/31 11:37:55;;;;;;;7.97;6.57;;;18.20;99.90;;;;;;5051373;28;20458;-83
2021/10/31 11:40:27;;;;;;;6.10;5.50;;;18.50;99.90;;;;;;5051418;28;20559;-84
2021/10/31 11:42:53;;;;;;;6.87;6.27;;;18.30;99.90;;;;;;5050608;28;21020;-83
2021/10/31 11:45:30;;;;;;;8.57;6.37;;;17.70;99.90;;;;;;5051710;28;20463;-83
2021/10/31 11:48:13;;;;;;;7.50;6.30;;;17.70;99.90;;;;;;5048705;28;20427;-84
2021/10/31 11:50:42;;;;;;;8.63;6.73;;;18.10;99.90;;;;;;5044912;28;20493;-83
2021/10/31 11:53:19;;;;;;;8.70;5.90;;;19.40;99.90;;;;;;5052477;28;20420;-83
2021/10/31 11:55:51;;;;;;;5.80;5.20;;;20.70;99.90;;;;;;5052774;28;20431;-84
2021/10/31 11:58:33;;;;;;;6.03;5.43;;;20.20;99.90;;;;;;5051552;28;20434;-83
2021/10/31 12:01:00;;;;;;;7.87;7.17;;;19.30;99.90;;;;;;5052629;28;20471;-84
2021/10/31 12:03:32;;;;;;;8.20;6.90;;;19.30;99.90;;;;;;5049138;28;20419;-87
2021/10/31 12:06:00;;;;;;;8.30;5.80;;;19.40;99.90;;;;;;5050963;28;20430;-83
2021/10/31 12:08:53;;;;;;;7.13;6.17;;;18.50;99.90;;;;;;5050022;28;20434;-83
2021/10/31 12:11:40;;;;;;;6.97;6.37;;;19.20;99.90;;;;;;5045739;28;20423;-82
2021/10/31 12:14:11;;;;;;;7.63;6.83;;;19.30;99.90;;;;;;5050935;28;20411;-83
2021/10/31 12:16:58;;;;;;;8.23;7.43;;;18.10;99.90;;;;;;5049844;28;20793;-83
2021/10/31 12:19:38;;;;;;;6.97;6.27;;;18.90;99.90;;;;;;5050584;28;20453;-83
2021/10/31 12:22:24;;;;;;;8.70;7.20;;;19.60;99.90;;;;;;5051507;28;20425;-86
2021/10/31 12:25:11;;;;;;;7.90;7.10;;;19.20;99.90;;;;;;5051505;28;20502;-83
2021/10/31 12:27:50;;;;;;;8.50;6.50;;;19.80;99.90;;;;;;5046741;28;20434;-83
2021/10/31 12:30:39;;;;;;;8.27;7.50;;;18.30;99.90;;;;;;5044997;28;20431;-86
2021/10/31 12:33:08;;;;;;;7.50;6.83;;;18.30;99.90;;;;;;5052041;28;20407;-85
2021/10/31 12:35:37;;;;;;;7.17;6.13;;;17.70;99.90;;;;;;5051819;28;21023;-83
2021/10/31 12:38:29;;;;;;;7.67;6.87;;;17.20;99.90;;;;;;5050162;28;20425;-85
2021/10/31 12:41:09;;;;;;;7.17;6.30;;;16.90;99.90;;;;;;5051652;28;20560;-83
2021/10/31 12:43:44;;;;;;;11.20;6.60;;;16.70;99.90;;;;;;5051970;28;21285;-84
2021/10/31 12:46:25;;;;;;;7.87;6.93;;;16.90;99.90;;;;;;5051748;28;20822;-83
2021/10/31 12:48:55;;;;;;;7.17;6.17;;;16.80;99.90;;;;;;5052041;28;20578;-82
2021/10/31 12:51:38;;;;;;;7.60;6.77;;;16.70;99.90;;;;;;5050446;28;20868;-84
2021/10/31 12:54:04;;;;;;;8.37;7.50;;;16.90;99.90;;;;;;5051646;28;20425;-82
2021/10/31 12:56:30;;;;;;;6.93;6.23;;;16.90;99.90;;;;;;5050719;28;20452;-83
2021/10/31 12:59:11;;;;;;;7.40;6.00;;;16.60;99.90;;;;;;5051683;28;20206;-83